岡山グライダークラブ活動状況掲示板あなたは無料カウンター人目の訪問者です

岡山グライダークラブ
岡山市浦安南町639-1 岡南飛行場
 使用機:シャイベ式 SF25C型 ファルケ   JA2330
      ヴァレンティン式17E型 タイフーン  JA2342
 練習日:毎日曜日  クラブルーム:電話 086-265-1810
この掲示板は岡山グライダークラブの活動状況をお知らせする掲示板です。
!!!この掲示板は投稿規制をしています。!!!
クラブ関連各種情報は 岡山グライダークラブクラブルーム      を       .
  ブリーフイング情報は  岡山グライダークラブブリーフィングルーム  をご覧下さい。 .
※写真はクリックすると拡大して見ることが出来ます。
岡南飛行場へのアクセス等は 岡南飛行場管理事務所 をご覧ください。
クラブの ホームページ ができました。

 
03月29日
by OGC at 2020/3/29(日) 19:26:44 No.20200329192413  削除コメント
1024 x 768 x 79,024バイト
No.1

03月29日
本日の参加者
  会員      12名
  その他      0名


@本日の様子


METAR
RJBK 290000Z 01004KT 320V090 30KM FEW020CU BKN030CU 10/04 Q1025 A3012
RJOB 290000Z 04014KT 330V070 9999 FEW015 BKN025 09/03 Q1019
RJOT 290000Z VRB01KT 9999 FEW010 SCT015 BKN050 08/05 Q1019
RJOA 290000Z 05011KT 9999 FEW015 SCT025 08/04 Q1019
TAF
RJOB 282308Z 2900/3006 02012KT 9999 FEW030
     BECMG 2921/3000 14004KT
RJOT 282307Z 2900/3006 26004KT 9999 FEW020 SCT035
     BECMG 2900/2902 01006KT
RJOA 282305Z 2900/3006 02008KT 9999 FEW025


 本日は、フライトする頃になると積雲が少し出来すぎって感じでしたが、みんな
サーマルを探して駆け廻ったり、桜が咲き始めたので上空から桜見物に行ったりし
ていました。
 フライト後には100時間点検をみんなで手分けしながら行い、来週には点検を
終える予定です。

解散    17:20

1番機  10:40離陸 撤収機  15:15着陸 

SF25C JA2330 ファルケ     08Flt.2h30min  
17E   JA2342 タイフーン    00Flt.0h00min  
合計                    08Flt.2h30min

    << 戻る || ホームページ || 最新の掲示板へ